Terminal Aerodrome Forecast
Issued by NWS

Home | Current Version | Previous Version | Text Only | Print | Product List | Glossary On
Versions: 1 2 3 4 5 6 7 8 9 10 11 12 13 14 15 16 17 18 19 20 21 22 23 24 25 26 27 28 29 30 31 32
000
FTUS42 KGSP 230539
TAFAND
TAF
KAND 230539Z 2306/2406 06008KT P6SM OVC022
     FM230900 05008KT P6SM VCSH OVC015
      TEMPO 2311/2313 4SM -RA OVC008
     FM231300 08007KT 5SM BR VCSH OVC005 PROB30 2315/2320 2SM RA BR
     FM232000 13007KT 4SM -RA BR OVC005 WS020/17035KT
     FM240100 14008KT 4SM +SHRA OVC007 WS020/17040KT=

USA.gov is the U.S. government's official web portal to all federal, state and local government web resources and services.